Tiempo atmosférico en la estación meteorológica de Llanes, Asturias (10 m.)



Fecha
DESCASC
Temp. máxima en grados centígrados (hora)
DESCASC
Temp. mínima en grados centígrados (hora)
DESCASC
Temp. media en grados centígrados
DESCASC
Racha de viento máxima en m/sg (hora)
DESCASC
Velocidad máxima media en intervalos de 10 minutos(hora)
DESCASC
Precipitaciones diarias en mm
DESCASC
Precipitaciones de 00:00 a 06:00 en mm
DESCASC
Precipitaciones de 06:00 a 12:00 en mm
DESCASC
Precipitaciones de 12:00 a 18:00 en mm
DESCASC
Precipitaciones de 18:00 a 24:00 en mm
DESCASC
16-02-2020 18.6 (11:40) 11 (00:00) 14.8 11.94 (22:40) 6.67 (22:40) 0 0 0 0 0
15-02-2020 15.6 (13:50) 8.5 (08:40) 12.1 5.83 (23:30) 3.33 (06:10) 0 0 0 0 0
14-02-2020 15.4 (12:40) 8.5 (08:40) 11.9 7.78 (16:00) 4.44 (16:50) 0 0 0 0 0
13-02-2020 17.2 (13:20) 9.5 (00:00) 13.4 11.94 (15:20) 6.67 (16:00) 0 0 0 0 0
12-02-2020 13.1 (16:00) 9.2 (00:00) 11.2 8.61 (17:00) 5 (17:50) 0.4 0 0.2 0.2 0
11-02-2020 14.2 (10:50) 10.5 (00:00) 12.3 11.39 (11:40) 5.83 (11:20) 1.4 0 0 0.6 0.8
10-02-2020 16.7 (14:20) 10.7 (00:00) 13.7 5.83 (06:40) 3.33 (07:10) 0 0 0 0 0
09-02-2020 17.8 (16:30) 6.7 (00:00) 12.2 5 (10:50) 3.61 (02:10) 0.2 0 0 0.2 0
08-02-2020 13.9 (13:30) 8.4 (00:00) 11.1 10 (07:40) 5.56 (08:00) 4.6 0 4.4 0.2 0
07-02-2020 16.5 (14:40) 8.2 (00:00) 12.3 7.78 (13:10) 5 (13:20) 0 0 0 0 0
06-02-2020 14.5 (15:20) 4.6 (00:00) 9.5 5 (21:20) 3.61 (03:40) 0 0 0 0 0
05-02-2020 12.4 (12:00) 6.2 (00:00) 9.3 16.39 (15:50) 11.67 (15:50) 0 0 0 0 0
04-02-2020 16.3 (01:20) 10 (00:00) 13.1 8.89 (05:30) 5.28 (05:30) 4.6 0 1.4 3 0.2
03-02-2020 20.9 (12:10) 13.6 (21:50) 17.3 7.22 (23:59) 3.61 (16:00) 0 0 0 0 0
02-02-2020 20 (12:10) 12.5 (00:00) 16.3 6.67 (05:20) 2.5 (03:40) 0 0 0 0 0
01-02-2020 16 (13:50) 12.8 (00:00) 14.4 8.33 (17:20) 5.28 (15:50) 1.4 1.4 0 0 0
31-01-2020 16 (15:10) 9.5 (00:00) 12.8 6.39 (00:40) 3.89 (16:20) 0.2 0 0 0 0.2
30-01-2020 16.2 (15:40) 11.7 (00:00) 14 5.83 (22:30) 3.06 (08:00) 0.2 0 0.2 0 0
29-01-2020 13.9 (17:20) 9.3 (00:00) 11.6 5.56 (08:50) 2.78 (00:10) 4.2 2.4 0.2 1 0.6
28-01-2020 14.7 (12:10) 9.5 (00:00) 12.1 10.28 (02:10) 5.28 (01:40) 1.8 1.6 0 0.2 0
27-01-2020 14.2 (16:10) 8.8 (00:00) 11.5 9.72 (14:00) 3.89 (06:30) 2.6 0.4 0.4 0.4 1.4
26-01-2020 14.1 (14:10) 5.5 (00:00) 9.8 8.61 (15:20) 4.72 (15:10) 0 0 0 0 0
25-01-2020 13.4 (15:10) 7.1 (00:00) 10.2 4.72 (22:50) 3.61 (22:40) 0 0 0 0 0
24-01-2020 13.9 (15:10) 6.8 (00:00) 10.3 4.72 (03:20) 3.61 (03:20) 0 0 0 0 0
23-01-2020 11.8 (15:00) 5.2 (00:00) 8.5 5.28 (07:30) 3.33 (07:20) 0.2 0.2 0 0 0
22-01-2020 10.3 (07:50) 6.4 (00:00) 8.4 8.06 (10:50) 5 (10:50) 6.2 0.4 2.4 3.4 0

Gráficas

Temp. máximas Temp. mínimas Temp. medias Precipitaciones Rachas de viento máximas Velocidades máximas media en intervalos de 10 minutos

Datos horarios

Fecha y hora oficial Temperatura (ºC) Velocidad del viento (km/h) Dirección del viento Racha (km/h) Dirección de racha Precipitación (mm) Presión (hPa) Tendencia (hPa) Humedad (%)
2020-02-20 23:00:00 11.8 5 Sudoeste 13 Noroeste 0 1029.8 1.3 72
2020-02-20 22:00:00 11.7 8 Sudoeste 15 Sudoeste 0 1028.8 1.8 69
2020-02-20 21:00:00 11.7 8 Sur 16 Sudoeste 0 1028.7 3 67
2020-02-20 20:00:00 11.5 5 Oeste 10 Oeste 0 1028.5 3.2 67
2020-02-20 19:00:00 11.6 4 Sur 12 Sudeste 0 1027 1.8 64
2020-02-20 18:00:00 12.3 8 Este 13 Este 0 1025.7 0.2 65
2020-02-20 17:00:00 13 5 Sudeste 9 Sudeste 0 1025.3 -0.2 60
2020-02-20 16:00:00 14 5 Nordeste 13 Noroeste 0 1025.2 -0.1 59
2020-02-20 15:00:00 13.8 7 Noroeste 21 Noroeste 0 1025.5 0.9 64
2020-02-20 14:00:00 13.1 13 Noroeste 23 Oeste 0 1025.5 1.8 68
2020-02-20 13:00:00 12.5 14 Noroeste 25 Noroeste 0 1025.3 2.2 71
2020-02-20 12:00:00 12.2 16 Noroeste 21 Noroeste 0 1024.6 2 72
2020-02-20 11:00:00 12.2 6 Noroeste 10 Noroeste 0 1023.7 1.4 72
2020-02-20 10:00:00 10.1 7 Sudoeste 13 Sudoeste 0 1023.1 0.7 78
2020-02-20 09:00:00 7.3 7 Sudoeste 12 Sudoeste 0 1022.6 0.2 80
2020-02-20 08:00:00 6.6 2 Sur 12 Sudoeste 0 1022.3 0 78
2020-02-20 07:00:00 7.2 8 Sudoeste 14 Sudoeste 0 1022.4 0.7 78
2020-02-20 06:00:00 6.5 9 Sudoeste 23 Sudoeste 0 1022.4 0.4 81
2020-02-20 05:00:00 5.9 11 Sudoeste 19 Oeste 0 1022.3 -0.3 82
2020-02-20 04:00:00 6.5 10 Sudoeste 15 Sudoeste 0 1021.7 -1.8 80
2020-02-20 03:00:00 6.9 10 Sudoeste 14 Sudoeste 0 1022 -2.4 81
2020-02-20 02:00:00 6.9 10 Sudoeste 15 Oeste 0 1022.6 -2.6 82
2020-02-20 01:00:00 7.5 10 Sudoeste 14 Sudoeste 0 1023.5 -2.3 82
2020-02-20 00:00:00 7.8 9 Sudoeste 12 Sudoeste 0 1024.4 -1.9 80
2020-02-19 23:00:00 7.7 5 Sudoeste 9 Sudoeste 0 1025.2 -1.7 80
2020-02-19 22:00:00 7.9 2 Oeste 7 Sudoeste 0 1025.8 -1.5 78
2020-02-19 21:00:00 9 3 Sur 10 Sur 0 1026.3 -1.1 74
2020-02-19 20:00:00 10.2 4 Sur 9 Sudeste 0 1026.9 -1 73
2020-02-19 19:00:00 11.7 8 Sudeste 17 Este 0 1027.3 -1.4 70
2020-02-19 18:00:00 11.8 13 Este 18 Este 0 1027.4 -2.2 67
2020-02-19 17:00:00 12.4 9 Este 14 Este 0 1027.9 -2.7 63
2020-02-19 16:00:00 14.1 7 Este 12 Este 0 1028.7 -3 59
2020-02-19 15:00:00 14.3 6 Este 12 Nordeste 0 1029.6 -2.8 59
2020-02-19 14:00:00 14 5 Nordeste 11 Nordeste 0 1030.6 -2.4 58
2020-02-19 13:00:00 13.4 6 Nordeste 12 Nordeste 0 1031.7 -1.5 60
2020-02-19 12:00:00 13.6 9 Este 14 Nordeste 0 1032.4 -0.7 64
2020-02-19 11:00:00 13.2 4 Norte 7 Nordeste 0 1033 0.3 69
2020-02-19 10:00:00 10.3 0 Calma 11 Oeste 0 1033.2 0 72
2020-02-19 09:00:00 6.9 7 Sudoeste 17 Sudoeste 0 1033.1 0.1 74
2020-02-19 08:00:00 6.9 8 Sudoeste 13 Sudoeste 0 1032.7 0.3 72
2020-02-19 07:00:00 7.6 10 Sudoeste 13 Sudoeste 0 1033.2 0.4 70
2020-02-19 06:00:00 7 9 Sudoeste 14 Sudoeste 0 1033 0.1 72
2020-02-19 05:00:00 7.7 9 Sudoeste 14 Sudoeste 0 1032.4 -1 70
2020-02-19 04:00:00 7.5 9 Sudoeste 14 Sudoeste 0 1032.8 -1 71
2020-02-19 03:00:00 7.5 9 Sudoeste 13 Sudoeste 0 1032.9 -1 71
2020-02-19 02:00:00 7.5 9 Sudoeste 13 Sudoeste 0 1033.4 -1.2 71
2020-02-19 01:00:00 8.2 9 Sudoeste 13 Sudoeste 0 1033.8 -0.8 70
2020-02-19 00:00:00 8 8 Sudoeste 11 Sudoeste 0 1033.9 -0.2 72
2020-02-18 23:00:00 7.7 8 Sudoeste 13 Sudoeste 0 1034.6 0.3 75
2020-02-18 22:00:00 8.2 7 Oeste 12 Sudoeste 0 1034.6 0.4 73
2020-02-18 21:00:00 9.8 6 Sudoeste 16 Oeste 0 1034.1 0.3 69
2020-02-18 20:00:00 10.4 5 Sudoeste 12 Oeste 0 1034.3 1.4 69
2020-02-18 19:00:00 11.2 5 Oeste 19 Noroeste 0 1034.2 1.6 67
2020-02-18 18:00:00 11.8 13 Oeste 22 Oeste 0 1033.8 0.4 64
2020-02-18 17:00:00 11.8 13 Noroeste 24 Noroeste 0 1032.9 -1 63
2020-02-18 16:00:00 12.4 17 Noroeste 23 Noroeste 0 1032.6 -1.6 59
2020-02-18 15:00:00 12.9 17 Noroeste 29 Noroeste 0 1033.4 -1.1 59
2020-02-18 14:00:00 12.6 19 Noroeste 30 Noroeste 0 1033.9 -0.8 58
2020-02-18 13:00:00 12.3 19 Noroeste 27 Noroeste 0 1034.2 -0.2 57
2020-02-18 12:00:00 12.3 14 Noroeste 19 Noroeste 0 1034.5 0.6 59
2020-02-18 11:00:00 12.2 7 Noroeste 13 Noroeste 0 1034.7 1.5 61
2020-02-18 10:00:00 10.5 6 Sudoeste 12 Sudoeste 0 1034.4 1.2 69
2020-02-18 09:00:00 7.4 10 Sudoeste 14 Sudoeste 0 1033.9 0.8 75
2020-02-18 08:00:00 7.2 8 Sudoeste 12 Sudoeste 0 1033.2 0 76
2020-02-18 07:00:00 7.5 8 Sudoeste 13 Sudoeste 0 1033.2 -0.2 77
2020-02-18 06:00:00 8 8 Sudoeste 12 Sudoeste 0 1033.1 -0.4 77
2020-02-18 05:00:00 8.8 6 Sudoeste 10 Sudoeste 0 1033.2 -0.4 75
2020-02-18 04:00:00 8.9 5 Sudoeste 11 Oeste 0 1033.4 -0.3 75
2020-02-18 03:00:00 9.2 8 Oeste 15 Sudoeste 0 1033.5 -0.2 74
2020-02-18 02:00:00 9.3 5 Oeste 10 Oeste 0 1033.6 0 74
2020-02-18 01:00:00 9.4 5 Oeste 10 Oeste 0 1033.7 0.3 73
2020-02-18 00:00:00 10.1 4 Oeste 13 Oeste 0 1033.7 0.5 74
2020-02-17 23:00:00 10.2 5 Sudoeste 17 Sudoeste 0 1033.6 0.9 75
2020-02-17 22:00:00 10.4 5 Sudoeste 12 Oeste 0 1033.4 1.4 74
2020-02-17 21:00:00 10.4 5 Oeste 17 Sudoeste 0 1033.2 2 75
2020-02-17 20:00:00 10.3 6 Oeste 18 Oeste 0.2 1032.7 2.3 77
2020-02-17 19:00:00 10.5 4 Oeste 29 Oeste 0.2 1032 2.1 76
2020-02-17 18:00:00 11.3 14 Oeste 33 Oeste 0 1031.2 1.9 69
2020-02-17 17:00:00 11.9 10 Oeste 29 Oeste 0 1030.4 1.5 69
2020-02-17 16:00:00 11.5 19 Oeste 44 Oeste 0 1029.9 1.6 72
2020-02-17 15:00:00 12.3 8 Oeste 51 Noroeste 0 1029.3 1.8 71
2020-02-17 14:00:00 11.9 22 Noroeste 49 Noroeste 0 1028.9 2 75
2020-02-17 13:00:00 12.9 22 Noroeste 42 Noroeste 0 1028.3 1.9 71
2020-02-17 12:00:00 14.3 13 Oeste 35 Oeste 0 1027.5 2 62
2020-02-17 11:00:00 12.4 10 Oeste 26 Oeste 0.2 1026.9 2.6 73
2020-02-17 10:00:00 10.7 9 Oeste 24 Oeste 0 1026.4 2.2 80
2020-02-17 09:00:00 10.5 10 Oeste 30 Oeste 0.4 1025.5 2.5 79
2020-02-17 08:00:00 10.3 13 Oeste 31 Oeste 0.4 1024.3 2.1 81
2020-02-17 07:00:00 10.1 12 Oeste 59 Noroeste 0.8 1024.2 3.2 86
2020-02-17 06:00:00 11.4 5 Oeste 13 Noroeste 1.6 1023 2.4 89
2020-02-17 05:00:00 11.2 11 Noroeste 23 Noroeste 1.2 1022.2 1.6 89
2020-02-17 04:00:00 12.1 4 Oeste 12 Oeste 0.4 1021 0.6 88
2020-02-17 03:00:00 12.2 5 Noroeste 14 Noroeste 0.4 1020.6 0.7 88
2020-02-17 02:00:00 12.3 6 Noroeste 13 Oeste 0 1020.6 0.8 86
2020-02-17 01:00:00 12.4 10 Noroeste 21 Noroeste 0 1020.4 3.7 84
2020-02-17 00:00:00 13.4 14 Oeste 31 Oeste 0 1019.9 3.3 79
2020-02-16 23:00:00 14.3 12 Oeste 43 Noroeste 0 1019.8 3.9 75
2020-02-16 22:00:00 14.7 3 Norte 14 Sudoeste 0 1016.7 1.1 59
2020-02-16 21:00:00 14.6 3 Oeste 12 Oeste 0 1016.6 1.5 61
2020-02-16 20:00:00 16.1 10 Sudoeste 17 Sudoeste 0 1015.9 0.6 52
2020-02-16 19:00:00 15.9 4 Noroeste 12 Noroeste 0 1015.6 0.5 59
2020-02-16 18:00:00 15.9 4 Este 12 Sur 0 1015.1 0 64
2020-02-16 17:00:00 16.1 3 Noroeste 14 Este 0 1015.3 0.5 66
2020-02-16 16:00:00 15.9 2 Sur 6 Sudeste 0 1015.1 0.2 70
2020-02-16 15:00:00 15.8 3 Este 6 Este 0 1015.1 0.8 68
2020-02-16 14:00:00 16.6 0 Calma 13 Sudoeste 0 1014.8 0.6 64
2020-02-16 13:00:00 17.2 3 Noroeste 16 Noroeste 0 1014.9 0.5 60
2020-02-16 12:00:00 17.9 2 Sur 10 Norte 0 1014.3 0.5 55
2020-02-16 11:00:00 17.4 3 Sudoeste 6 Sudoeste 0 1014.2 0.5 55
2020-02-16 10:00:00 13.1 4 Sudoeste 14 Oeste 0 1014.4 0.4 62
2020-02-16 09:00:00 12.4 3 Sudoeste 16 Sudoeste 0 1013.8 0.1 62
2020-02-16 08:00:00 12.9 11 Sudoeste 22 Oeste 0 1013.7 -0.4 62
2020-02-16 07:00:00 12.8 5 Sudoeste 13 Sudoeste 0 1014 -0.8 71
2020-02-16 06:00:00 12.5 4 Sudoeste 10 Sudoeste 0 1013.7 -1.5 59
2020-02-16 05:00:00 13.2 4 Sur 12 Sudoeste 0 1014.1 -1.3 58
2020-02-16 04:00:00 12 5 Sudoeste 17 Oeste 0 1014.8 -0.8 68
2020-02-16 03:00:00 11.7 4 Sur 10 Sudoeste 0 1015.2 -1.1 75
2020-02-16 02:00:00 11.8 3 Sudeste 21 Sudoeste 0 1015.4 -1.7 76
2020-02-16 01:00:00 11.4 8 Sudoeste 17 Oeste 0 1015.6 -1 78
2020-02-16 00:00:00 11 3 Noroeste 21 Oeste 0 1016.3 -1.7 81
2020-02-15 23:00:00 11.4 6 Sudoeste 13 Oeste 0 1017.1 -1.2 81
2020-02-15 22:00:00 11.6 2 Noroeste 10 Oeste 0 1016.6 -1.9 81
2020-02-15 21:00:00 11.6 4 Sudoeste 11 Sudoeste 0 1018 -0.7 82
2020-02-15 20:00:00 12.1 4 Sudoeste 9 Sudoeste 0 1018.3 -0.1 82
2020-02-15 19:00:00 13.1 4 Sudoeste 12 Noroeste 0 1018.5 1.1 79
2020-02-15 18:00:00 13.8 8 Noroeste 14 Oeste 0 1018.7 1.3 76
2020-02-15 17:00:00 14.1 8 Noroeste 18 Noroeste 0 1018.4 0.1 76
2020-02-15 16:00:00 14.8 7 Noroeste 12 Noroeste 0 1017.4 -1.4 75
2020-02-15 15:00:00 14.8 4 Norte 8 Nordeste 0 1017.4 -1.7 76
2020-02-15 14:00:00 14.7 4 Norte 14 Sudeste 0 1018.3 -2.4 73
2020-02-15 13:00:00 15.2 4 Este 12 Noroeste 0 1018.8 -2.3 71
2020-02-15 12:00:00 14.8 6 Norte 9 Norte 0 1019.1 -1.8 72
2020-02-15 11:00:00 14.5 0 Calma 9 Oeste 0 1020.7 0.7 71
2020-02-15 10:00:00 11.8 6 Sudoeste 10 Oeste 0 1021.1 0.8 78
2020-02-15 09:00:00 9 4 Sudoeste 15 Sudoeste 0 1020.9 0.2 82
2020-02-15 08:00:00 9.2 2 Sur 13 Sudoeste 0 1020 -0.4 81
2020-02-15 07:00:00 9.1 10 Sudoeste 15 Sudoeste 0 1020.3 0.3 80
2020-02-15 06:00:00 9.1 12 Sudoeste 16 Sudoeste 0 1020.7 -0.3 81
2020-02-15 05:00:00 9.8 8 Oeste 16 Sudoeste 0 1020.4 -1.1 78
2020-02-15 04:00:00 10.3 2 Sudoeste 9 Oeste 0 1020 -1.6 77
2020-02-15 03:00:00 10.7 0 Calma 11 Sudoeste 0 1021 -0.7 76
2020-02-15 02:00:00 11 4 Sudoeste 16 Sudoeste 0 1021.5 -1 75
2020-02-15 01:00:00 11.6 6 Oeste 13 Sudeste 0 1021.6 -1.6 72
2020-02-15 00:00:00 14 8 Sudeste 19 Sudeste 0 1021.7 -2.1 68
2020-02-14 23:00:00 13.8 8 Sudeste 17 Este 0 1022.5 -1.6 67
2020-02-14 22:00:00 14.1 6 Este 21 Este 0 1023.2 -0.7 69
2020-02-14 21:00:00 14.2 5 Sudeste 15 Sudeste 0 1023.8 0.4 68
2020-02-14 20:00:00 13.6 2 Este 6 Sudoeste 0 1024.1 1 78
2020-02-14 19:00:00 13.7 4 Sudoeste 13 Sudeste 0 1023.9 0.3 78
2020-02-14 18:00:00 13.8 9 Este 22 Este 0 1023.4 -0.4 79
2020-02-14 17:00:00 13.8 14 Este 22 Este 0 1023.1 -1.2 78
2020-02-14 16:00:00 13.9 11 Este 28 Este 0 1023.6 -0.9 77
2020-02-14 15:00:00 14.2 6 Este 12 Este 0 1023.8 -1.2 79
2020-02-14 14:00:00 14.1 5 Este 10 Este 0 1024.3 -0.7 77
2020-02-14 13:00:00 15.1 9 Este 15 Este 0 1024.5 -0.6 75
2020-02-14 12:00:00 14.8 4 Este 7 Nordeste 0 1025 0.2 75
2020-02-14 11:00:00 14.8 3 Norte 5 Norte 0 1025 0.9 80
2020-02-14 10:00:00 11.6 2 Oeste 14 Este 0 1025.1 1.8 84
2020-02-14 09:00:00 9 2 Sudoeste 8 Oeste 0 1024.8 1.6 85
2020-02-14 08:00:00 9.3 4 Sudoeste 13 Sudoeste 0 1024.1 0.9 85
2020-02-14 07:00:00 8.9 10 Sudoeste 17 Sudoeste 0 1023.3 0.1 85
2020-02-14 06:00:00 9.4 3 Sudoeste 10 Sudoeste 0 1023.2 -0.5 84
2020-02-14 05:00:00 9.3 4 Sudoeste 7 Sudoeste 0 1023.2 -1.1 84
2020-02-14 04:00:00 9.8 3 Sudoeste 11 Sudoeste 0 1023.2 -1.2 83
2020-02-14 03:00:00 10.5 3 Sur 14 Este 0 1023.7 -1 81
2020-02-14 02:00:00 11.3 5 Sur 6 Sur 0 1024.3 -0.3 80
2020-02-14 01:00:00 12.5 3 Sur 14 Oeste 0 1024.4 0 78
2020-02-14 00:00:00 12.8 5 Sudoeste 17 Oeste 0 1024.7 0.6 77
2020-02-13 23:00:00 12.9 4 Sudoeste 16 Oeste 0 1024.6 1.2 77
2020-02-13 22:00:00 13.1 2 Oeste 22 Oeste 0 1024.4 2.1 76
2020-02-13 21:00:00 13.1 7 Oeste 21 Oeste 0 1024.1 2.6 75
2020-02-13 20:00:00 13.1 8 Oeste 21 Oeste 0 1023.4 2.3 75
2020-02-13 19:00:00 13.1 8 Oeste 18 Oeste 0 1022.3 1.9 78
2020-02-13 18:00:00 13.1 10 Oeste 33 Oeste 0 1021.5 2.1 80
2020-02-13 17:00:00 13.5 14 Noroeste 31 Noroeste 0 1021.1 1.6 80
2020-02-13 16:00:00 14.2 24 Noroeste 43 Noroeste 0 1020.4 0.9 76
2020-02-13 15:00:00 16.9 17 Noroeste 42 Noroeste 0 1019.4 1 65
2020-02-13 14:00:00 16.5 17 Noroeste 31 Oeste 0 1019.5 1.7 67
2020-02-13 13:00:00 16.1 2 Norte 9 Este 0 1019.5 2.2 70
2020-02-13 12:00:00 16.3 3 Nordeste 8 Nordeste 0 1018.4 1.8 70
2020-02-13 11:00:00 15.6 3 Sudeste 7 Sudeste 0 1017.8 1.6 71
2020-02-13 10:00:00 13 2 Sur 10 Oeste 0 1017.3 1.7 75
2020-02-13 09:00:00 12.1 5 Sudoeste 9 Sudoeste 0 1016.6 1.5 74
2020-02-13 08:00:00 11.5 6 Oeste 19 Oeste 0 1016.2 0.7 75
2020-02-13 07:00:00 10.4 10 Oeste 19 Oeste 0 1015.6 0.2 77
2020-02-13 06:00:00 10.3 6 Sudoeste 13 Sudoeste 0 1015.1 -0.9 77
2020-02-13 05:00:00 10.1 6 Sudoeste 12 Sudoeste 0 1015.5 -0.9 80
2020-02-13 04:00:00 10.2 0 Calma 13 Sudoeste 0 1015.4 -1.5 83
2020-02-13 03:00:00 9.8 2 Oeste 17 Sudoeste 0 1016 -1.3 85
2020-02-13 02:00:00 10 5 Sudoeste 14 Norte 0 1016.4 -1.6 86
2020-02-13 01:00:00 10.3 4 Sur 10 Sudoeste 0 1016.9 -0.8 86
2020-02-13 00:00:00 11 4 Sur 11 Sudoeste 0 1017.3 -0.1 87
2020-02-12 23:00:00 10.8 5 Oeste 15 Oeste 0 1018 0.2 87
2020-02-12 22:00:00 11.1 8 Oeste 15 Oeste 0 1017.7 -0.5 87
2020-02-12 21:00:00 11 7 Oeste 14 Sudoeste 0 1017.4 -1.4 87
2020-02-12 20:00:00 11.2 8 Oeste 13 Oeste 0 1017.8 -1.9 86
2020-02-12 19:00:00 12.1 3 Sur 23 Sudeste 0 1018.2 -2.1 85
2020-02-12 18:00:00 12.5 17 Sudeste 26 Sudeste 0 1018.8 -2.5 85
2020-02-12 17:00:00 12.4 15 Este 31 Este 0.2 1019.7 -3 83
2020-02-12 16:00:00 13.1 11 Este 23 Este 0 1020.3 -3.7 81
2020-02-12 15:00:00 12.7 11 Este 18 Este 0 1021.3 -3.4 82
2020-02-12 14:00:00 12.4 9 Este 17 Este 0 1022.7 -2.4 83
2020-02-12 13:00:00 12.4 10 Este 20 Este 0 1024 -1.2 84
2020-02-12 12:00:00 11.6 11 Este 20 Este 0 1024.7 -0.3 86
2020-02-12 11:00:00 11.3 4 Este 13 Norte 0.2 1025.1 0.8 88
2020-02-12 10:00:00 10.3 4 Sudoeste 13 Sudoeste 0 1025.2 0.6 88
2020-02-12 09:00:00 9.3 6 Sudoeste 11 Oeste 0 1025 0.5 88
2020-02-12 08:00:00 10.2 4 Sur 16 Sudoeste 0 1024.3 -1.1 88
2020-02-12 07:00:00 9.8 5 Oeste 14 Este 0 1024.6 -1.1 87
2020-02-12 06:00:00 10.4 4 Sudeste 16 Norte 0 1024.5 -0.9 87
2020-02-12 05:00:00 10.4 4 Sudoeste 9 Sudoeste 0 1025.4 -0.6 88
2020-02-12 04:00:00 10.4 6 Sudoeste 9 Oeste 0 1025.7 -0.6 88
2020-02-12 03:00:00 10.3 4 Sudoeste 10 Sudoeste 0 1025.4 -0.8 88
2020-02-12 02:00:00 10.3 7 Sudoeste 15 Sudoeste 0 1026 -0.2 88
2020-02-12 01:00:00 10.4 4 Sudoeste 9 Sudoeste 0 1026.3 0.3 88
2020-02-12 00:00:00 10.5 6 Sudoeste 9 Oeste 0 1026.2 -0.5 87
2020-02-11 23:00:00 10.6 4 Oeste 13 Noroeste 0 1026.2 -0.6 87
2020-02-11 22:00:00 10.7 3 Oeste 9 Oeste 0 1026 -0.9 86
2020-02-11 21:00:00 10.9 6 Sudoeste 12 Oeste 0 1026.7 -0.1 87
2020-02-11 20:00:00 11.2 5 Oeste 13 Sudoeste 0.6 1026.8 -0.5 87
2020-02-11 19:00:00 11.3 5 Oeste 14 Noroeste 0.2 1026.9 0.5 87
2020-02-11 18:00:00 11.3 7 Sudoeste 15 Oeste 0.2 1026.8 0.4 87
2020-02-11 17:00:00 11.4 10 Oeste 27 Oeste 0.4 1027.3 0.6 87
2020-02-11 16:00:00 11.9 13 Noroeste 32 Noroeste 0 1026.4 -0.7 84
2020-02-11 15:00:00 13.2 16 Noroeste 33 Noroeste 0 1026.4 -0.9 76
2020-02-11 14:00:00 13.4 14 Oeste 29 Oeste 0 1026.7 -0.2 77
2020-02-11 13:00:00 14.1 15 Noroeste 35 Oeste 0 1027.1 0.1 77
2020-02-11 12:00:00 14 17 Noroeste 41 Noroeste 0 1027.3 0.5 79
2020-02-11 11:00:00 13.7 19 Noroeste 32 Noroeste 0 1026.9 0.3 79
2020-02-11 10:00:00 14 10 Noroeste 27 Oeste 0 1027 0.4 71
2020-02-11 09:00:00 14 17 Oeste 31 Oeste 0 1026.8 0.6 71
2020-02-11 08:00:00 13.4 11 Oeste 28 Oeste 0 1026.6 0.7 75
2020-02-11 07:00:00 13.4 8 Oeste 20 Oeste 0 1026.6 0.3 75
2020-02-11 06:00:00 13.1 5 Sudoeste 15 Oeste 0 1026.2 -0.4 78
2020-02-11 05:00:00 13 4 Oeste 18 Oeste 0 1025.9 -0.5 83
2020-02-11 04:00:00 12.8 5 Sudoeste 17 Oeste 0 1026.3 -0.1 86
2020-02-11 03:00:00 12.8 4 Sudoeste 19 Oeste 0 1026.6 -0.2 86
2020-02-11 02:00:00 12.8 0 Calma 15 Noroeste 0 1026.4 -0.9 86
2020-02-11 01:00:00 12.9 0 Calma 15 Oeste 0 1026.4 -0.9 86
2020-02-11 00:00:00 12.6 5 Sudoeste 12 Sur 0 1026.8 -0.5 86
2020-02-10 23:00:00 11.9 6 Sudoeste 12 Oeste 0 1027.3 0.2 86
2020-02-10 22:00:00 12.2 4 Oeste 13 Sudoeste 0 1027.3 1 86
2020-02-10 21:00:00 12.8 3 Sur 6 Oeste 0 1027.3 0.9 84
2020-02-10 20:00:00 13.6 3 Norte 13 Sur 0 1027.1 0.4 83
2020-02-10 19:00:00 14.2 5 Sudeste 21 Este 0 1026.3 0.3 82
2020-02-10 18:00:00 14.6 6 Este 16 Este 0 1026.4 1 80
2020-02-10 17:00:00 15.1 5 Noroeste 11 Noroeste 0 1026.7 1.6 77
2020-02-10 16:00:00 16.5 2 Este 9 Sur 0 1026 0.5 76
2020-02-10 15:00:00 16.1 3 Norte 12 Nordeste 0 1025.4 -1.5 76
2020-02-10 14:00:00 16.4 3 Nordeste 16 Nordeste 0 1025.1 -1 75
2020-02-10 13:00:00 15.7 10 Este 15 Este 0 1025.5 -0.6 75
2020-02-10 12:00:00 15.8 4 Norte 12 Noroeste 0 1026.9 0.8 74
2020-02-10 11:00:00 15.7 6 Sudoeste 13 Sudoeste 0 1026.1 0.6 73
2020-02-10 10:00:00 13.2 4 Sudoeste 16 Oeste 0 1026.1 1.6 81
2020-02-10 09:00:00 10.8 8 Oeste 19 Oeste 0 1026.1 2.4 83
2020-02-10 08:00:00 11.9 8 Sudoeste 17 Sudoeste 0 1025.5 2 83
2020-02-10 07:00:00 11.4 9 Oeste 21 Oeste 0 1024.5 0.8 83
2020-02-10 06:00:00 13.3 4 Sudoeste 15 Este 0 1023.7 0.1 81
2020-02-10 05:00:00 12.6 4 Sudeste 9 Este 0 1023.5 1.1 82
2020-02-10 04:00:00 11.5 2 Oeste 11 Sudoeste 0 1023.7 1.9 80
2020-02-10 03:00:00 12.6 4 Sur 7 Sudeste 0 1023.6 2.7 79
2020-02-10 02:00:00 13 3 Sudeste 8 Sudeste 0 1022.4 2.2 76
2020-02-10 01:00:00 13.7 4 Sudeste 7 Sur 0 1021.8 1.7 72
2020-02-10 00:00:00 14.5 3 Oeste 14 Noroeste 0 1020.9 0.7 69
2020-02-09 23:00:00 14.8 3 Sudoeste 13 Sudoeste 0 1020.2 0.2 68
2020-02-09 22:00:00 14.6 4 Este 16 Sudoeste 0 1020.1 -0.9 69
2020-02-09 21:00:00 14.5 8 Oeste 17 Sudoeste 0 1020.2 0 71
2020-02-09 20:00:00 14.6 2 Sudeste 8 Sur 0 1020 0.6 72
2020-02-09 19:00:00 15.2 5 Sudoeste 14 Sudoeste 0 1021 1.7 70
2020-02-09 18:00:00 15.3 2 Norte 13 Norte 0 1020.2 0.5 69
2020-02-09 17:00:00 16.8 2 Norte 9 Sur 0 1019.4 -0.2 62
2020-02-09 16:00:00 17.3 4 Sur 9 Sur 0 1019.3 -0.7 55
2020-02-09 15:00:00 16.3 3 Oeste 10 Norte 0 1019.7 -1 64
2020-02-09 14:00:00 14.8 4 Noroeste 15 Norte 0 1019.6 -1.9 74
2020-02-09 13:00:00 14.7 3 Noroeste 12 Norte 0.2 1020 -1.4 73
2020-02-09 12:00:00 13 4 Noroeste 8 Noroeste 0 1020.7 -0.4 76
2020-02-09 11:00:00 10.8 6 Sudoeste 18 Oeste 0 1021.5 0 79
2020-02-09 10:00:00 8.7 9 Oeste 15 Oeste 0 1021.4 0.1 82
2020-02-09 09:00:00 8 3 Sudoeste 8 Oeste 0 1021.1 -0.5 83
2020-02-09 08:00:00 7.6 5 Sudoeste 12 Sudoeste 0 1021.5 -0.1 83
2020-02-09 07:00:00 7.8 2 Sur 6 Sur 0 1021.3 -0.4 83
2020-02-09 06:00:00 7.5 2 Oeste 12 Sudoeste 0 1021.6 0 83
2020-02-09 05:00:00 7.3 9 Oeste 18 Oeste 0 1021.6 -0.4 85
2020-02-09 04:00:00 7.4 9 Sudoeste 16 Oeste 0 1021.7 -0.3 83
2020-02-09 03:00:00 7.8 8 Oeste 17 Oeste 0 1021.6 -1 83
2020-02-09 02:00:00 7.5 12 Sudoeste 16 Oeste 0 1022 -1.4 84
2020-02-09 01:00:00 7.9 3 Sudoeste 17 Sudoeste 0 1022 -1.5 84
2020-02-09 00:00:00 8.4 3 Oeste 8 Oeste 0 1022.6 -0.6 83
2020-02-08 23:00:00 9 5 Sudoeste 13 Sudoeste 0 1023.4 0.3 82
2020-02-08 22:00:00 9 11 Sudoeste 15 Sudoeste 0 1023.5 0.3 84
2020-02-08 21:00:00 9.4 8 Oeste 14 Sudoeste 0 1023.2 -0.1 83
2020-02-08 20:00:00 11 4 Sur 16 Este 0 1023.1 0.1 79
2020-02-08 19:00:00 11.6 4 Sudeste 10 Sudeste 0 1023.2 -0.1 78
2020-02-08 18:00:00 12.7 3 Sudeste 6 Este 0 1023.3 0.1 78
2020-02-08 17:00:00 12.6 4 Este 7 Sudeste 0 1023 0.2 80
2020-02-08 16:00:00 12.2 5 Noroeste 22 Noroeste 0 1023.3 0.5 80
2020-02-08 15:00:00 12.5 9 Noroeste 17 Noroeste 0 1023.2 0.8 78
2020-02-08 14:00:00 12.5 3 Noroeste 9 Norte 0 1022.8 -0.1 75
2020-02-08 13:00:00 13.3 2 Nordeste 13 Noroeste 0.2 1022.8 -0.3 78
2020-02-08 12:00:00 11.7 4 Norte 12 Sudoeste 0 1022.4 0 82
2020-02-08 11:00:00 11.5 6 Oeste 15 Oeste 0.2 1022.9 1.7 84
2020-02-08 10:00:00 11.3 7 Oeste 25 Oeste 0.8 1023.1 3.1 85
2020-02-08 09:00:00 11.3 10 Oeste 32 Noroeste 1.8 1022.4 2.9 85
2020-02-08 08:00:00 11.8 20 Noroeste 36 Noroeste 1.4 1021.2 2.2 84
2020-02-08 07:00:00 12.7 5 Oeste 17 Oeste 0.2 1020 1.5 76
2020-02-08 06:00:00 12.9 10 Oeste 19 Oeste 0 1019.5 1.3 72
2020-02-08 05:00:00 11.8 8 Oeste 21 Oeste 0 1019 0.5 70
2020-02-08 04:00:00 10.7 10 Oeste 21 Oeste 0 1018.5 0 72
2020-02-08 03:00:00 9.9 5 Oeste 18 Oeste 0 1018.2 -0.4 72
2020-02-08 02:00:00 10.3 8 Sudoeste 13 Sudoeste 0 1018.5 -0.4 71
2020-02-08 01:00:00 10.2 3 Oeste 14 Sudoeste 0 1018.5 -0.7 71
2020-02-08 00:00:00 10.5 11 Oeste 15 Sudoeste 0 1018.6 -0.7 69
2020-02-07 23:00:00 11 2 Sudoeste 6 Sudoeste 0 1018.9 -0.5 68
2020-02-07 22:00:00 12.3 3 Sur 7 Este 0 1019.2 0.1 66
2020-02-07 21:00:00 13.3 6 Sur 15 Sudeste 0 1019.3 0.2 63
2020-02-07 20:00:00 13.6 9 Sudeste 21 Sudeste 0 1019.4 0.2 63
2020-02-07 19:00:00 13 3 Sur 12 Sur 0 1019.1 0.8 71
2020-02-07 18:00:00 14.1 3 Sur 8 Sudoeste 0 1019.1 0.6 70
2020-02-07 17:00:00 14.2 0 Calma 11 Norte 0 1019.2 0.6 74
2020-02-07 16:00:00 15.8 3 Este 6 Este 0 1018.3 -0.7 69
2020-02-07 15:00:00 16.5 4 Este 16 Sudeste 0 1018.5 -1.8 64
2020-02-07 14:00:00 15.3 11 Este 28 Este 0 1018.6 -1.9 63
2020-02-07 13:00:00 14.4 15 Este 20 Sudeste 0 1019 -1.1 67
2020-02-07 12:00:00 15.6 4 Este 7 Sudeste 0 1020.3 0.5 64
2020-02-07 11:00:00 14.2 2 Sudeste 16 Sudoeste 0 1020.5 1.5 67
2020-02-07 10:00:00 10.8 2 Sudoeste 8 Oeste 0 1020.1 1.7 73
2020-02-07 09:00:00 9.9 6 Sudoeste 12 Sudoeste 0 1019.8 1.6 73
2020-02-07 08:00:00 8.3 9 Sudoeste 15 Oeste 0 1019 0.9 77
2020-02-07 07:00:00 9.3 8 Sudoeste 12 Oeste 0 1018.4 0.1 76
2020-02-07 06:00:00 8.5 7 Oeste 11 Oeste 0 1018.2 -0.2 81
2020-02-07 05:00:00 8.4 4 Oeste 14 Oeste 0 1018.1 -0.7 80
2020-02-07 04:00:00 8.6 5 Oeste 11 Sudoeste 0 1018.3 -0.5 80
2020-02-07 03:00:00 9.3 6 Sudoeste 12 Sudoeste 0 1018.4 -0.8 80
2020-02-07 02:00:00 9.1 6 Oeste 12 Sudoeste 0 1018.8 -0.6 80
2020-02-07 01:00:00 9.6 2 Sur 10 Sudoeste 0 1018.8 -0.2 79
2020-02-07 00:00:00 11 9 Sudoeste 14 Sudoeste 0 1019.2 0.4 78
2020-02-06 23:00:00 10.6 5 Oeste 10 Oeste 0 1019.4 0.7 77
2020-02-06 22:00:00 10.6 3 Oeste 18 Oeste 0 1019 0.4 76
2020-02-06 21:00:00 10.9 5 Oeste 13 Sudoeste 0 1018.8 0.1 76
2020-02-06 20:00:00 11.2 8 Sudoeste 13 Sudoeste 0 1018.7 0.1 78
2020-02-06 19:00:00 12 4 Sudoeste 8 Este 0 1018.6 -0.1 78
2020-02-06 18:00:00 12.5 5 Este 9 Este 0 1018.7 -0.1 75
2020-02-06 17:00:00 12.7 3 Este 5 Este 0 1018.6 -0.9 71
2020-02-06 16:00:00 13.9 2 Este 5 Nordeste 0 1018.7 -1.3 67
2020-02-06 15:00:00 13.9 3 Nordeste 10 Norte 0 1018.8 -1.7 68
2020-02-06 14:00:00 13.7 6 Noroeste 12 Noroeste 0 1019.5 -0.8 71
2020-02-06 13:00:00 12.4 9 Noroeste 14 Noroeste 0 1020 -0.2 72
2020-02-06 12:00:00 12.4 7 Noroeste 13 Oeste 0 1020.5 0.3 66
2020-02-06 11:00:00 11.6 4 Oeste 10 Sudoeste 0 1020.3 0.6 65
2020-02-06 10:00:00 8.1 9 Sudoeste 14 Sudoeste 0 1020.2 0.7 73
2020-02-06 09:00:00 5.7 9 Sudoeste 16 Sudoeste 0 1020.2 0.4 78
2020-02-06 08:00:00 5 8 Sudoeste 15 Oeste 0 1019.7 -0.1 79
2020-02-06 07:00:00 4.9 10 Sudoeste 16 Oeste 0 1019.5 -0.7 79
2020-02-06 06:00:00 5.4 8 Oeste 15 Oeste 0 1019.8 -0.6 79
2020-02-06 05:00:00 5.2 10 Sudoeste 15 Sudoeste 0 1019.8 -1.5 80
2020-02-06 04:00:00 4.7 10 Sudoeste 16 Sudoeste 0 1020.2 -2.1 80
2020-02-06 03:00:00 4.9 12 Sudoeste 15 Sudoeste 0 1020.4 -2.8 79
2020-02-06 02:00:00 5.4 11 Sudoeste 15 Oeste 0 1021.3 -2.7 78
2020-02-06 01:00:00 5.3 8 Sudoeste 12 Oeste 0 1022.3 -2.7 76
2020-02-06 00:00:00 6.2 4 Sudoeste 15 Sudoeste 0 1023.2 -2.1 74
2020-02-05 23:00:00 7.5 2 Sur 12 Sur 0 1024 -1.4 71
2020-02-05 22:00:00 7.7 4 Sur 11 Sur 0 1025 -0.6 70
2020-02-05 21:00:00 8.5 5 Sur 27 Sudeste 0 1025.3 -0.3 67
2020-02-05 20:00:00 9.7 19 Sudeste 46 Sudeste 0 1025.4 -0.7 66
2020-02-05 19:00:00 10.3 19 Sudeste 58 Este 0 1025.6 -1.1 66
2020-02-05 18:00:00 10.9 37 Este 56 Este 0 1025.6 -1.8 68
2020-02-05 17:00:00 11.1 37 Este 56 Este 0 1026.1 -2.9 69
2020-02-05 16:00:00 11.5 39 Este 59 Este 0 1026.7 -3.6 66
2020-02-05 15:00:00 11.8 38 Este 55 Este 0 1027.4 -3.8 64
2020-02-05 14:00:00 11.5 40 Este 56 Este 0 1029 -2.3 67
2020-02-05 13:00:00 11.2 32 Este 41 Este 0 1030.3 -1.2 70
2020-02-05 12:00:00 12.4 26 Este 40 Sudeste 0 1031.2 -0.4 66
2020-02-05 11:00:00 11.8 27 Sudeste 42 Sudeste 0 1031.3 -0.2 62
2020-02-05 10:00:00 11.1 20 Sudeste 31 Sudeste 0 1031.5 -0.3 59
2020-02-05 09:00:00 9.8 15 Sudeste 34 Este 0 1031.6 -0.7 61
2020-02-05 08:00:00 9.6 14 Sudeste 27 Sudeste 0 1031.5 -0.9 62
2020-02-05 07:00:00 9.4 11 Sudeste 27 Sudeste 0 1031.8 -0.9 64
2020-02-05 06:00:00 9.8 16 Sudeste 28 Sudeste 0 1032.3 -0.8 66
2020-02-05 05:00:00 9.2 10 Sudeste 22 Sudeste 0 1032.4 -1.2 72
2020-02-05 04:00:00 9.1 7 Sudeste 16 Sudeste 0 1032.7 -1.5 76
2020-02-05 03:00:00 9.5 8 Sudeste 19 Sudeste 0 1033.1 -1.5 75
2020-02-05 02:00:00 10.2 10 Sudeste 22 Sudeste 0 1033.6 -1.4 75
2020-02-05 01:00:00 10.2 10 Sudeste 19 Sudeste 0 1034.2 -0.7 79
2020-02-05 00:00:00 10 10 Sudeste 20 Sudeste 0 1034.6 -0.1 82
2020-02-04 23:00:00 10.3 11 Sudeste 21 Sudeste 0 1035 0.3 83
2020-02-04 22:00:00 10 9 Sudeste 17 Sudeste 0 1034.9 0.7 85
2020-02-04 21:00:00 10.2 8 Sur 16 Sur 0.2 1034.7 0.9 86
2020-02-04 20:00:00 10.3 7 Sudeste 17 Sudeste 0 1034.7 0.9 87
2020-02-04 19:00:00 10.5 7 Sur 12 Sur 0 1034.2 0.6 87
2020-02-04 18:00:00 10.6 5 Sudeste 18 Este 0.4 1033.8 0.6 87
2020-02-04 12:00:00 11.8 4 Este 12 Este 0.4 1033.5 2.3 87
2020-02-04 11:00:00 11.8 8 Sudeste 17 Nordeste 1 1033.2 3.4 87
2020-02-04 10:00:00 12.6 6 Este 20 Nordeste 0 1032.5 2.6 86
2020-02-04 09:00:00 13.5 5 Oeste 17 Noroeste 0 1031.2 1.6 87
2020-02-04 08:00:00 13.5 6 Noroeste 21 Oeste 0 1029.8 0.4 86
2020-02-04 07:00:00 13.7 6 Oeste 23 Noroeste 0 1029.9 0.8 86
2020-02-04 06:00:00 13.8 17 Noroeste 32 Noroeste 0 1029.6 0.7 84
2020-02-04 05:00:00 14.7 9 Oeste 15 Oeste 0 1029.4 0.1 77
2020-02-04 04:00:00 14.6 6 Oeste 17 Oeste 0 1029.1 0.2 75
2020-02-04 03:00:00 15.4 10 Oeste 24 Noroeste 0 1028.9 1.2 73
2020-02-04 02:00:00 15.9 9 Oeste 26 Noroeste 0 1029.3 2.5 70
2020-02-04 01:00:00 15.7 9 Oeste 29 Oeste 0 1028.9 3.5 65
2020-02-04 00:00:00 15.4 11 Oeste 26 Oeste 0 1027.7 3.5 59
2020-02-03 23:00:00 15.3 9 Oeste 18 Oeste 0 1026.8 3.4 55
2020-02-03 22:00:00 13.9 12 Sudoeste 22 Oeste 0 1025.4 2.1 60
2020-02-03 21:00:00 14 8 Oeste 17 Oeste 0 1024.2 1.2 59
2020-02-03 20:00:00 15.1 3 Sudoeste 9 Oeste 0 1023.4 0.9 57
2020-02-03 19:00:00 15.5 3 Sudeste 15 Sudoeste 0 1023.3 0.5 58
2020-02-03 18:00:00 16.1 5 Norte 14 Norte 0 1023 0.7 61
2020-02-03 17:00:00 17.8 4 Oeste 18 Oeste 0 1022.5 -0.5 50
2020-02-03 16:00:00 19.3 13 Noroeste 21 Noroeste 0 1022.8 -0.3 42
2020-02-03 15:00:00 20.5 0 Calma 11 Norte 0 1022.3 -1.5 45
2020-02-03 14:00:00 20 8 Noroeste 19 Noroeste 0 1023 -1.1 43
2020-02-03 13:00:00 20.7 0 Calma 6 Sudeste 0 1023.1 -1.1 39
2020-02-03 12:00:00 20.5 5 Oeste 10 Sudoeste 0 1023.8 -0.1 46
2020-02-03 11:00:00 17 2 Norte 6 Este 0 1024.1 0 54
2020-02-03 10:00:00 14.4 3 Sudoeste 12 Oeste 0 1024.2 0.2 58
2020-02-03 09:00:00 14.8 0 Calma 9 Sudoeste 0 1023.9 -0.3 48
2020-02-03 08:00:00 14.1 0 Calma 9 Sudoeste 0 1024.1 -0.3 53
2020-02-03 07:00:00 14.2 0 Calma 16 Oeste 0 1024 -0.6 53
2020-02-03 06:00:00 15.5 6 Sudoeste 13 Oeste 0 1024.2 -0.5 48
2020-02-03 05:00:00 14.8 3 Oeste 13 Noroeste 0 1024.4 -0.4 52
2020-02-03 04:00:00 15 6 Sudoeste 15 Oeste 0 1024.6 0 51
2020-02-03 03:00:00 15.6 7 Sudoeste 18 Sudoeste 0 1024.7 0.4 51
2020-02-03 02:00:00 16.3 10 Sudoeste 22 Sudoeste 0 1024.8 0.8 47
2020-02-03 01:00:00 15.8 9 Sudoeste 23 Sudoeste 0 1024.6 0.9 51
2020-02-03 00:00:00 15.3 6 Sudoeste 18 Sudoeste 0 1024.3 1 58
2020-02-02 23:00:00 15.6 3 Oeste 14 Sudoeste 0 1024 1.1 62
2020-02-02 22:00:00 16.1 5 Sudoeste 10 Oeste 0 1023.7 1.4 62
2020-02-02 21:00:00 17 3 Sudoeste 11 Sudoeste 0 1023.3 1.9 62
2020-02-02 20:00:00 16.4 3 Sudoeste 15 Sudoeste 0 1022.9 1.4 71
2020-02-02 19:00:00 16.4 3 Sudoeste 8 Noroeste 0 1022.3 0.8 77
2020-02-02 18:00:00 16.8 5 Oeste 16 Sudoeste 0 1021.4 0 77
2020-02-02 17:00:00 15.6 4 Sudeste 15 Norte 0 1021.5 0.3 76
2020-02-02 16:00:00 17 3 Noroeste 10 Noroeste 0 1021.5 -0.5 70
2020-02-02 15:00:00 18.4 4 Este 13 Este 0 1021.4 -0.8 64
2020-02-02 14:00:00 17.3 3 Este 14 Este 0 1021.2 -1.3 67
2020-02-02 13:00:00 17.3 3 Sudeste 8 Sudeste 0 1022 0.2 67
2020-02-02 12:00:00 19.8 3 Sur 9 Oeste 0 1022.2 0.7 63
2020-02-02 11:00:00 16.4 0 Calma 12 Oeste 0 1022.5 1.9 75
2020-02-02 10:00:00 13.7 6 Oeste 12 Oeste 0 1021.8 1.5 79
2020-02-02 09:00:00 13.2 5 Sudeste 15 Oeste 0 1021.5 1 80
2020-02-02 08:00:00 13.1 5 Noroeste 9 Oeste 0 1020.6 1.1 79
2020-02-02 07:00:00 13.2 2 Sur 8 Sudoeste 0 1020.3 0.9 78
2020-02-02 06:00:00 12.8 5 Sudoeste 24 Oeste 0 1020.5 1.1 79
2020-02-02 05:00:00 12.9 2 Oeste 11 Oeste 0 1019.5 0 79
2020-02-02 04:00:00 14.3 8 Oeste 19 Oeste 0 1019.4 -0.3 78
2020-02-02 03:00:00 12.8 6 Oeste 14 Oeste 0 1019.4 -0.6 82
2020-02-02 02:00:00 12.9 3 Sudoeste 12 Sudoeste 0 1019.5 -1.1 82
2020-02-02 01:00:00 13.4 4 Oeste 14 Sudoeste 0 1019.7 -1.3 82
2020-02-02 00:00:00 13.5 12 Sudoeste 22 Oeste 0 1020 -1.3 83
2020-02-01 23:00:00 13 4 Oeste 16 Oeste 0 1020.6 -0.9 86
2020-02-01 22:00:00 13.6 3 Oeste 17 Este 0 1021 1.4 86
2020-02-01 21:00:00 13.9 3 Sudeste 12 Sur 0 1021.3 2 85
2020-02-01 20:00:00 14.6 10 Oeste 30 Oeste 0 1021.5 2.5 84
2020-02-01 19:00:00 14.5 5 Sudeste 17 Este 0 1019.6 0.1 84
2020-02-01 18:00:00 14.7 6 Este 30 Este 0 1019.3 -0.4 84
2020-02-01 17:00:00 14.7 13 Este 26 Este 0 1019 -1.1 83
2020-02-01 16:00:00 15.2 18 Sudeste 28 Este 0 1019.5 -0.8 81
2020-02-01 15:00:00 15.5 14 Este 22 Este 0 1019.7 0 80
2020-02-01 14:00:00 15.9 10 Este 18 Este 0 1020.1 0.2 82
2020-02-01 13:00:00 15.2 6 Este 16 Este 0 1020.3 1.3 84
2020-02-01 12:00:00 14.5 14 Este 22 Este 0 1019.7 2.1 85
2020-02-01 11:00:00 14.8 4 Sudeste 14 Noroeste 0 1019.9 1.8 86
2020-02-01 10:00:00 14.3 2 Sudeste 16 Este 0 1019 2.4 85
2020-02-01 09:00:00 13.8 4 Sudeste 13 Oeste 0 1017.6 1.3 86
2020-02-01 08:00:00 13.8 3 Sudoeste 6 Oeste 0 1018.1 2.7 85
2020-02-01 07:00:00 14.4 4 Oeste 18 Noroeste 0 1016.6 2 84
2020-02-01 06:00:00 14.4 10 Noroeste 18 Oeste 0 1016.3 1.7 82
2020-02-01 05:00:00 13.9 6 Oeste 19 Sudoeste 0 1015.4 1 81
2020-02-01 04:00:00 14 5 Oeste 21 Sudoeste 0 1014.6 0.9 82
2020-02-01 03:00:00 14.3 3 Oeste 18 Oeste 0.2 1014.6 1.3 81
2020-02-01 02:00:00 14.2 11 Oeste 22 Oeste 0.2 1014.4 1.1 81
2020-02-01 01:00:00 14.1 14 Sudoeste 19 Oeste 1 1013.7 0.3 80
2020-02-01 00:00:00 14.5 12 Sudoeste 22 Sudoeste 0.2 1013.3 -0.7 70
2020-01-31 23:00:00 13.8 10 Sudoeste 21 Oeste 0 1013.3 -1.1 69
2020-01-31 22:00:00 13.5 6 Noroeste 15 Sudoeste 0 1013.4 -1.5 71
2020-01-31 21:00:00 13.6 6 Sudoeste 16 Sudoeste 0 1014 -1.4 76
2020-01-31 20:00:00 12.6 0 Calma 15 Sudoeste 0 1014.4 -0.9 81
2020-01-31 19:00:00 13.1 4 Sudoeste 15 Oeste 0 1014.9 -0.2 80
2020-01-31 18:00:00 13.5 3 Este 14 Noroeste 0 1015.4 -0.9 78
2020-01-31 17:00:00 13.6 3 Norte 19 Este 0 1015.3 -1.9 78
2020-01-31 16:00:00 14.6 13 Este 21 Este 0 1015.1 -2.8 76
2020-01-31 15:00:00 15.9 4 Este 6 Este 0 1016.3 -2.3 72
2020-01-31 14:00:00 15.5 3 Este 19 Este 0 1017.2 -1 73
2020-01-31 13:00:00 14.6 3 Este 9 Este 0 1017.9 -1.2 78
2020-01-31 12:00:00 14.3 2 Sudeste 9 Sudoeste 0 1018.6 -0.4 80
2020-01-31 11:00:00 13.5 10 Este 18 Este 0 1018.2 -0.1 81
2020-01-31 10:00:00 11.3 5 Sudoeste 10 Sudoeste 0 1019.1 1.5 83
2020-01-31 09:00:00 9.7 4 Sudoeste 10 Oeste 0 1019 1.1 85
2020-01-31 08:00:00 9.9 8 Oeste 16 Sudoeste 0 1018.3 0.5 86
2020-01-31 07:00:00 10.2 3 Sur 15 Sudoeste 0 1017.6 -0.4 86
2020-01-31 06:00:00 10.2 8 Sudoeste 15 Sudoeste 0 1017.9 -0.5 86
2020-01-31 05:00:00 10.1 10 Oeste 14 Sudoeste 0 1017.8 -0.8 85
2020-01-31 04:00:00 10.3 9 Oeste 14 Oeste 0 1018 -0.9 85
2020-01-31 03:00:00 11.4 0 Calma 14 Este 0 1018.4 -0.1 84
2020-01-31 02:00:00 11.8 0 Calma 12 Oeste 0 1018.6 0.6 82
2020-01-31 01:00:00 12.7 0 Calma 23 Oeste 0 1018.9 1.2 82
2020-01-31 00:00:00 12.9 3 Oeste 18 Oeste 0 1018.5 1.3 83
2020-01-30 23:00:00 13 3 Sudeste 21 Oeste 0 1018 0.8 82
2020-01-30 22:00:00 13 6 Sudoeste 13 Noroeste 0 1017.7 0.9 82
2020-01-30 21:00:00 13.5 4 Sudeste 10 Sudeste 0 1017.2 1.1 82
2020-01-30 20:00:00 14 2 Sur 15 Sur 0 1017.2 1.1 79
2020-01-30 19:00:00 14.1 5 Sudeste 13 Sudeste 0 1016.8 1.5 80
2020-01-30 18:00:00 14.3 5 Este 14 Sudoeste 0 1016.1 1.3 82
2020-01-30 17:00:00 15.1 2 Noroeste 4 Noroeste 0 1016.1 1 81
2020-01-30 16:00:00 15.4 0 Calma 8 Sur 0 1015.3 0.4 80
2020-01-30 15:00:00 14.8 2 Oeste 9 Norte 0 1014.8 -0.7 82
2020-01-30 14:00:00 14.9 5 Sur 9 Oeste 0 1015.1 0.2 82
2020-01-30 13:00:00 14.6 4 Norte 13 Norte 0 1014.9 0.3 82
2020-01-30 12:00:00 15.4 5 Noroeste 10 Noroeste 0 1015.5 0.8 82
2020-01-30 11:00:00 13.9 2 Oeste 13 Sudoeste 0 1014.9 0.2 84
2020-01-30 10:00:00 13 3 Oeste 10 Oeste 0 1014.6 0.6 84
2020-01-30 09:00:00 12.7 5 Oeste 15 Oeste 0.2 1014.7 -0.3 83
2020-01-30 08:00:00 12.4 11 Oeste 14 Oeste 0 1014.7 0 84
2020-01-30 07:00:00 12.7 9 Sudeste 13 Sudeste 0 1014 -1.2 86
2020-01-30 06:00:00 12.5 11 Sudoeste 15 Oeste 0 1015 -0.2 85
2020-01-30 05:00:00 12.1 4 Sur 11 Sur 0 1014.7 -0.7 86
2020-01-30 04:00:00 12.1 4 Sur 14 Sudoeste 0 1015.2 -0.5 86
2020-01-30 03:00:00 12.2 0 Calma 6 Noroeste 0 1015.2 -0.6 87
2020-01-30 02:00:00 12.4 3 Sudoeste 7 Oeste 0 1015.4 -0.9 87
2020-01-30 01:00:00 12.6 0 Calma 6 Sudoeste 0 1015.7 -0.1 87
2020-01-30 00:00:00 12.6 0 Calma 14 Sudoeste 0 1015.8 0.3 87
2020-01-29 23:00:00 12.4 9 Oeste 14 Sudoeste 0.2 1016.3 0.9 88
2020-01-29 22:00:00 12.4 8 Oeste 12 Oeste 0 1015.8 0.4 88
2020-01-29 21:00:00 12.6 2 Oeste 14 Oeste 0 1015.5 1 87
2020-01-29 20:00:00 12.9 5 Oeste 13 Oeste 0.2 1015.4 0.8 87
2020-01-29 19:00:00 13.4 3 Oeste 9 Norte 0.2 1015.4 1.4 87
2020-01-29 18:00:00 13.9 3 Oeste 11 Sudoeste 0 1014.5 -0.3 86
2020-01-29 17:00:00 13.7 6 Sudoeste 17 Oeste 0.4 1014.6 -1.2 86
2020-01-29 16:00:00 13.5 7 Noroeste 14 Oeste 0.4 1014 -3.5 86
2020-01-29 15:00:00 13.3 6 Oeste 20 Este 0 1014.8 -3.3 85
2020-01-29 14:00:00 12.9 5 Este 9 Este 0.2 1015.8 -2.7 85
2020-01-29 13:00:00 13 3 Este 7 Nordeste 0 1017.5 -1 86
2020-01-29 12:00:00 12.4 3 Nordeste 8 Sudoeste 0 1018.1 -0.3 87
2020-01-29 11:00:00 11.2 4 Oeste 7 Sudoeste 0 1018.5 0 87
2020-01-29 10:00:00 10.3 2 Oeste 8 Oeste 0 1018.5 0.2 87
2020-01-29 09:00:00 9.4 7 Oeste 20 Sudoeste 0 1018.4 -0.1 87
2020-01-29 08:00:00 9.6 4 Sudoeste 13 Sudoeste 0.2 1018.5 -0.6 87
2020-01-29 07:00:00 9.6 8 Sudoeste 14 Sudoeste 0 1018.3 -1.5 87
2020-01-29 06:00:00 10.2 3 Sudoeste 8 Sudeste 0.2 1018.5 -1.1 85
2020-01-29 05:00:00 10.3 4 Sur 10 Sur 0.6 1019.1 -0.1 85
2020-01-29 04:00:00 10.4 6 Sur 15 Sudoeste 1.2 1019.8 0.5 83
2020-01-29 03:00:00 10.5 3 Oeste 13 Sudoeste 0.4 1019.6 0.4 81
2020-01-29 02:00:00 10.8 9 Sudoeste 14 Oeste 0 1019.2 -0.3 76
2020-01-29 01:00:00 10.7 9 Sudoeste 14 Sudoeste 0 1019.3 -0.2 75
2020-01-29 00:00:00 11 8 Sudoeste 13 Sudoeste 0 1019.2 -0.4 73
2020-01-28 23:00:00 10.7 9 Sudoeste 13 Sudoeste 0 1019.5 0.2 74
2020-01-28 22:00:00 11.2 4 Sudoeste 12 Sudoeste 0 1019.5 0.7 72
2020-01-28 21:00:00 11.1 9 Sudoeste 13 Sudoeste 0 1019.6 1.4 72
2020-01-28 20:00:00 11.2 7 Oeste 17 Sudoeste 0 1019.3 1.1 71
2020-01-28 19:00:00 10.9 8 Sudoeste 14 Sudoeste 0 1018.8 0.8 73
2020-01-28 18:00:00 12.7 3 Sur 10 Noroeste 0 1018.2 -0.1 69
2020-01-28 17:00:00 13.3 9 Oeste 25 Noroeste 0 1018.2 -0.5 67
2020-01-28 16:00:00 13.6 14 Noroeste 28 Oeste 0.2 1018 -1 63
2020-01-28 15:00:00 14.1 15 Noroeste 27 Noroeste 0 1018.3 -0.8 64
2020-01-28 14:00:00 14.2 15 Noroeste 21 Noroeste 0 1018.7 -0.1 61
2020-01-28 13:00:00 14.5 4 Noroeste 11 Oeste 0 1019 0.7 60
2020-01-28 12:00:00 14.5 2 Oeste 12 Sudoeste 0 1019.1 1.9 60
2020-01-28 11:00:00 12.8 5 Sudoeste 16 Sudoeste 0 1018.8 2.3 68
2020-01-28 10:00:00 10.6 8 Sudoeste 15 Sudoeste 0 1018.3 2.1 72
2020-01-28 09:00:00 9.8 8 Sudoeste 20 Oeste 0 1017.2 1.6 74
2020-01-28 08:00:00 10.8 9 Oeste 23 Oeste 0 1016.5 2 73
2020-01-28 07:00:00 10.3 8 Oeste 23 Oeste 0 1016.2 1.5 82
2020-01-28 06:00:00 10.2 9 Oeste 15 Sudoeste 0 1015.6 1.2 86
2020-01-28 05:00:00 11.1 2 Sur 7 Sudoeste 0 1014.5 0.1 83
2020-01-28 04:00:00 12 5 Sudoeste 18 Oeste 0 1014.7 0.6 82
2020-01-28 03:00:00 12.1 13 Noroeste 37 Oeste 0 1014.4 0.5 83
2020-01-28 02:00:00 11.8 17 Oeste 35 Noroeste 0.4 1014.4 1.7 86
2020-01-28 01:00:00 11.9 3 Oeste 12 Sur 1.2 1014.1 1.9 87
2020-01-28 00:00:00 11.8 9 Oeste 15 Sudoeste 0.8 1013.9 2.2 86
2020-01-27 23:00:00 11.9 4 Oeste 18 Noroeste 0.4 1012.7 1.5 84
2020-01-27 22:00:00 12 3 Nordeste 14 Sudoeste 0.2 1012.2 1.9 81
2020-01-27 21:00:00 11.8 4 Oeste 11 Oeste 0 1011.7 1.6 77
2020-01-27 20:00:00 11.9 5 Sudoeste 19 Oeste 0 1011.2 1.1 78
2020-01-27 19:00:00 12.5 0 Calma 12 Sudoeste 0 1010.3 0.1 79
2020-01-27 18:00:00 13.5 5 Oeste 8 Oeste 0 1010.1 -0.6 77
2020-01-27 17:00:00 14 6 Oeste 9 Oeste 0 1010.1 -2.6 73
2020-01-27 16:00:00 14.1 3 Nordeste 24 Este 0 1010.2 -3.4 72
2020-01-27 15:00:00 13 11 Sudeste 18 Sudeste 0 1010.7 -3.9 81
2020-01-27 14:00:00 13.2 0 Calma 35 Oeste 0.4 1012.7 -2.7 81
2020-01-27 13:00:00 12.7 7 Sur 21 Este 0 1013.6 -1.8 80
2020-01-27 12:00:00 12.6 4 Sudeste 10 Sudoeste 0.2 1014.6 -0.3 81
2020-01-27 11:00:00 12.2 5 Sudoeste 10 Sudoeste 0 1015.4 2.1 81
2020-01-27 10:00:00 11.8 5 Oeste 17 Oeste 0.2 1015.4 3.1 79
2020-01-27 09:00:00 11.8 11 Oeste 21 Oeste 0 1014.9 2.5 76
2020-01-27 08:00:00 11.6 11 Oeste 24 Noroeste 0 1013.3 0.2 69
2020-01-27 07:00:00 10.7 10 Sudoeste 21 Sudoeste 0 1012.3 -2.4 71
2020-01-27 06:00:00 10.2 6 Sudoeste 18 Sudoeste 0.4 1012.4 -2.3 69
2020-01-27 05:00:00 10.2 4 Sur 15 Oeste 0 1013.1 -2.2 65
2020-01-27 04:00:00 9.9 6 Oeste 16 Sudoeste 0 1014.7 -1.3 62
2020-01-27 03:00:00 8.9 5 Oeste 10 Oeste 0 1014.7 -1.5 65
2020-01-27 02:00:00 9.2 3 Sur 10 Sudoeste 0 1015.3 -1.5 64
2020-01-27 01:00:00 9.5 8 Sudoeste 19 Sudoeste 0 1016 -1 61
2020-01-27 00:00:00 9.4 10 Oeste 16 Sudoeste 0 1016.2 -1.5 62
2020-01-26 23:00:00 9.5 3 Sudoeste 16 Sudoeste 0 1016.8 -0.7 65
2020-01-26 22:00:00 9.3 2 Sur 8 Sudoeste 0 1017 -0.4 68
2020-01-26 21:00:00 9.5 4 Sudoeste 14 Noroeste 0 1017.7 0.5 68
2020-01-26 20:00:00 10.6 9 Sudoeste 17 Oeste 0 1017.5 0.1 63
2020-01-26 19:00:00 12.3 4 Sur 14 Sudeste 0 1017.4 0 59
2020-01-26 18:00:00 13.1 13 Sudeste 16 Este 0 1017.2 -1 62
2020-01-26 17:00:00 13.7 10 Este 21 Este 0 1017.4 -1.3 68
2020-01-26 16:00:00 13.7 9 Este 31 Este 0 1017.4 -1.8 67
2020-01-26 15:00:00 13.9 13 Este 21 Sudeste 0 1018.2 -1.5 64
2020-01-26 14:00:00 13.8 11 Este 17 Este 0 1018.7 -1.2 60
2020-01-26 13:00:00 12.7 10 Este 13 Este 0 1019.2 -0.7 69
2020-01-26 12:00:00 13.1 0 Calma 9 Oeste 0 1019.7 0.1 70
2020-01-26 11:00:00 11.2 4 Oeste 8 Sudoeste 0 1019.9 1 77
2020-01-26 10:00:00 7.6 3 Sur 12 Sudoeste 0 1019.9 1.6 81
2020-01-26 09:00:00 5.8 5 Oeste 12 Oeste 0 1019.6 1.8 83
2020-01-26 08:00:00 6.4 9 Sudoeste 17 Oeste 0 1018.9 1.3 84
2020-01-26 07:00:00 6.2 2 Oeste 8 Oeste 0 1018.3 0.8 85
2020-01-26 06:00:00 6.9 4 Sur 11 Sudoeste 0 1017.8 0.5 86
2020-01-26 05:00:00 6.6 7 Oeste 12 Sudoeste 0 1017.6 0.4 84
2020-01-26 04:00:00 6.9 6 Sudoeste 13 Sudoeste 0 1017.5 0.2 85
2020-01-26 03:00:00 7.2 5 Sudoeste 9 Sudoeste 0 1017.3 0.1 83
2020-01-26 02:00:00 8.2 6 Sudoeste 17 Oeste 0 1017.2 0 83
2020-01-26 01:00:00 7.4 7 Oeste 16 Sudoeste 0 1017.3 0.1 82
2020-01-26 00:00:00 7.4 10 Sudoeste 17 Sudoeste 0 1017.2 0.2 83
2020-01-25 23:00:00 8.6 11 Sudoeste 17 Sudoeste 0 1017.2 0.7 83
2020-01-25 22:00:00 9.8 8 Sudoeste 12 Sudoeste 0 1017.2 1.4 81
2020-01-25 21:00:00 9.4 9 Sudoeste 13 Sudoeste 0 1017 1.7 82
2020-01-25 20:00:00 10.1 9 Sudoeste 14 Sudoeste 0 1016.5 1.4 80
2020-01-25 19:00:00 11.1 0 Calma 5 Sur 0 1015.8 1.1 77
2020-01-25 18:00:00 11.8 3 Sur 5 Sur 0 1015.3 0.4 75
2020-01-25 17:00:00 12.2 2 Noroeste 6 Noroeste 0 1015.1 -0.1 73
2020-01-25 16:00:00 13 3 Noroeste 8 Norte 0 1014.7 -1.2 70
2020-01-25 15:00:00 13.2 2 Noroeste 6 Norte 0 1014.9 -1.5 70
2020-01-25 14:00:00 13 3 Norte 15 Nordeste 0 1015.2 -1.2 69
2020-01-25 13:00:00 12.4 3 Norte 5 Noroeste 0 1015.9 -0.5 71
2020-01-25 12:00:00 11.9 0 Calma 5 Oeste 0 1016.4 0.3 73
2020-01-25 11:00:00 10 2 Oeste 8 Sudoeste 0 1016.4 0.7 74
2020-01-25 10:00:00 9.2 5 Sudoeste 11 Sudoeste 0 1016.4 1 75
2020-01-25 09:00:00 8.7 2 Oeste 6 Oeste 0 1016.1 0.7 77
2020-01-25 08:00:00 9.1 7 Sudoeste 13 Sudoeste 0 1015.7 0.2 74
2020-01-25 07:00:00 8.5 8 Sudoeste 11 Sudoeste 0 1015.4 -0.5 76
2020-01-25 06:00:00 8.2 3 Oeste 8 Sudoeste 0 1015.4 -0.8 77
2020-01-25 05:00:00 8.2 7 Sudoeste 11 Oeste 0 1015.5 -0.9 76
2020-01-25 04:00:00 8.2 3 Sur 9 Oeste 0 1015.9 -0.9 77
2020-01-25 03:00:00 7.6 9 Sudoeste 13 Sudoeste 0 1016.2 -0.7 77
2020-01-25 02:00:00 7.4 2 Oeste 5 Oeste 0 1016.4 -1 77
2020-01-25 01:00:00 8.4 6 Sudoeste 17 Sudoeste 0 1016.8 -0.8 76
2020-01-25 00:00:00 8.2 4 Sudoeste 12 Oeste 0 1016.9 -0.9 77
2020-01-24 23:00:00 9 5 Sudoeste 10 Sudoeste 0 1017.4 0 76
2020-01-24 22:00:00 9.8 3 Sudoeste 12 Sudoeste 0 1017.6 0.6 74
2020-01-24 21:00:00 10.1 8 Sudoeste 12 Sudoeste 0 1017.8 1.1 74
2020-01-24 20:00:00 10.1 9 Sudoeste 12 Sudoeste 0 1017.4 0.9 75
2020-01-24 19:00:00 10.7 7 Oeste 11 Sudoeste 0 1017 0.3 74
2020-01-24 18:00:00 11.5 0 Calma 9 Este 0 1016.7 -0.4 71
2020-01-24 17:00:00 12 6 Este 15 Sudeste 0 1016.5 -1 68
2020-01-24 16:00:00 13.2 8 Este 11 Este 0 1016.7 -1.5 67
2020-01-24 15:00:00 13.8 4 Este 6 Este 0 1017.1 -1.5 68
2020-01-24 14:00:00 12.8 2 Este 7 Norte 0 1017.5 -0.8 67
2020-01-24 13:00:00 12.5 4 Norte 11 Noroeste 0 1018.2 0.4 68
2020-01-24 12:00:00 11.5 0 Calma 6 Oeste 0 1018.6 1 74
2020-01-24 11:00:00 10 2 Oeste 14 Oeste 0 1018.3 1 78
2020-01-24 10:00:00 8.5 2 Sudoeste 9 Sudoeste 0 1017.8 0.7 78
2020-01-24 09:00:00 8.4 8 Sudoeste 10 Sudoeste 0 1017.6 0.7 77
2020-01-24 08:00:00 8.6 8 Sudoeste 14 Sudoeste 0 1017.3 0.8 74
2020-01-24 07:00:00 8 9 Sudoeste 14 Sudoeste 0 1017.1 0.5 75
2020-01-24 06:00:00 7.7 8 Oeste 15 Sudoeste 0 1016.9 0.2 77
2020-01-24 05:00:00 7 8 Oeste 14 Sudoeste 0 1016.5 -0.3 80
2020-01-24 04:00:00 7.4 7 Oeste 17 Sudoeste 0 1016.6 -0.4 80
2020-01-24 03:00:00 7.3 9 Oeste 14 Oeste 0 1016.7 -0.3 82
2020-01-24 02:00:00 7.4 11 Sudoeste 15 Sudoeste 0 1016.8 -0.2 82
2020-01-24 01:00:00 7.8 8 Sudoeste 15 Sudoeste 0 1017 0.2 81
2020-01-24 00:00:00 7.6 8 Sudoeste 14 Sudoeste 0 1017 0.3 83
2020-01-23 23:00:00 7.8 9 Sudoeste 14 Oeste 0 1017 0.2 83
2020-01-23 22:00:00 8.1 3 Sudoeste 12 Sudoeste 0 1016.8 0.3 83
2020-01-23 21:00:00 8.3 6 Sudoeste 11 Sudoeste 0 1016.7 0.4 83
2020-01-23 20:00:00 8.9 0 Calma 10 Sudoeste 0 1016.8 1 83
2020-01-23 19:00:00 9.7 5 Sudoeste 8 Sudoeste 0 1016.5 0.3 80
2020-01-23 18:00:00 10.6 4 Sur 6 Oeste 0 1016.3 -0.7 78
2020-01-23 17:00:00 11.1 4 Oeste 9 Sudoeste 0 1015.8 -1.7 76
2020-01-23 16:00:00 11.5 3 Sudoeste 7 Sudoeste 0 1016.2 -1.5 76
2020-01-23 15:00:00 11.7 0 Calma 8 Nordeste 0 1017 -1.2 77
2020-01-23 14:00:00 11.6 2 Norte 12 Noroeste 0 1017.5 -0.3 78
2020-01-23 13:00:00 11.2 3 Norte 7 Oeste 0 1017.7 -0.4 81
2020-01-23 12:00:00 10.2 5 Sudoeste 15 Oeste 0 1018.2 0.3 83
2020-01-23 11:00:00 8.1 10 Sudoeste 15 Sudoeste 0 1017.8 0.4 85
2020-01-23 10:00:00 6.9 5 Sudoeste 13 Sudoeste 0 1018.1 0.3 84
2020-01-23 09:00:00 6 9 Sudoeste 13 Sudoeste 0 1017.9 0.4 85
2020-01-23 08:00:00 5.8 8 Oeste 19 Sur 0 1017.4 0 84
2020-01-23 07:00:00 5.6 10 Sudoeste 16 Sudoeste 0 1017.8 -0.2 86
2020-01-23 06:00:00 5.9 11 Sudoeste 16 Sudoeste 0 1017.5 -1 86
2020-01-23 05:00:00 6.2 12 Sudoeste 15 Sudoeste 0 1017.4 -1.5 86
2020-01-23 04:00:00 6.5 9 Sudoeste 15 Sudoeste 0 1018 -1.1 86
2020-01-23 03:00:00 6.5 8 Oeste 15 Sudoeste 0.2 1018.5 -0.8 87
2020-01-23 02:00:00 6.1 12 Sudoeste 16 Sudoeste 0 1018.9 -0.4 87
2020-01-23 01:00:00 6.5 8 Sudoeste 15 Sudoeste 0 1019.1 -0.2 87
2020-01-23 00:00:00 6.6 11 Sudoeste 16 Sudoeste 0 1019.3 -0.3 87
2020-01-22 23:00:00 7.1 8 Sudoeste 15 Sudoeste 0 1019.3 -0.4 86
2020-01-22 22:00:00 7.8 2 Sudoeste 15 Sudoeste 0 1019.3 -0.5 86
2020-01-22 21:00:00 8.5 9 Sudoeste 15 Oeste 0 1019.6 -0.3 86
2020-01-22 20:00:00 9.3 7 Sudeste 12 Sudeste 0 1019.7 -0.5 85
2020-01-22 19:00:00 9.2 3 Sur 9 Sur 0 1019.8 -1 86
2020-01-22 18:00:00 9.4 5 Sudoeste 9 Oeste 0.4 1019.9 -1.4 85
2020-01-22 17:00:00 9.7 4 Sudoeste 14 Sudoeste 1.4 1020.2 -2.2 83
2020-01-22 16:00:00 10 3 Sur 9 Este 0.8 1020.8 -2.2 81
2020-01-22 15:00:00 10.3 5 Sudeste 18 Este 0.4 1021.3 -2.3 80
2020-01-22 14:00:00 10.1 7 Sudeste 14 Sudeste 0.2 1022.4 -1.1 79
2020-01-22 13:00:00 10.2 9 Sudeste 23 Este 0.2 1023 -0.6 79
2020-01-22 12:00:00 10.1 14 Sudeste 26 Sudeste 1 1023.6 0 78
2020-01-22 11:00:00 10.2 13 Sudeste 29 Sudeste 0.6 1023.5 0.1 78
2020-01-22 10:00:00 9.9 12 Sudeste 22 Sudeste 0.6 1023.6 0 77
2020-01-22 09:00:00 10.1 11 Sudeste 22 Sudeste 0 1023.6 -0.5 77
2020-01-22 08:00:00 10.3 9 Sudeste 20 Sudeste 0 1023.4 -1.2 79
2020-01-22 07:00:00 9.9 8 Sudeste 18 Sudeste 0.2 1023.6 -1.6 85
2020-01-22 06:00:00 9.1 3 Sur 14 Oeste 0 1024.1 -1.9 86
2020-01-22 05:00:00 8.7 7 Sudoeste 13 Sudoeste 0 1024.6 -1.5 86
2020-01-22 04:00:00 8.9 7 Oeste 15 Sudoeste 0 1025.2 -1.9 85
2020-01-22 03:00:00 8.9 8 Sudoeste 17 Noroeste 0 1026 -1.6 85
2020-01-22 02:00:00 8.3 10 Sudoeste 18 Sudoeste 0.2 1026.1 -1.6 85
2020-01-22 01:00:00 8.4 8 Sudoeste 17 Oeste 0.2 1027.1 -0.7 83
2020-01-22 00:00:00 9.2 5 Sur 16 Este 0 1027.6 -0.4 79